Time;durP1;ratioP1;P1;durP2;ratioP2;P2;SDS_P1;SDS_P2;PMS_P1;PMS_P2;Temp;Humidity;BMP_temperature;BMP_pressure;BME280_temperature;BME280_humidity;BME280_pressure;Samples;Min_cycle;Max_cycle;Signal;HPM_P1;HPM_P2
2023/03/21 11:14:32;;;;;;;3.03;2.57;;;18.10;53.80;;;;;;6219722;22;1294399;-66
2023/03/21 11:16:59;;;;;;;2.57;2.33;;;18.20;53.30;;;;;;6273218;22;20160;-66
2023/03/21 11:19:31;;;;;;;2.70;2.40;;;18.30;53.10;;;;;;6272516;22;20445;-66
2023/03/21 11:22:03;;;;;;;2.60;2.10;;;18.40;52.80;;;;;;6272917;22;20386;-65
2023/03/21 11:24:31;;;;;;;2.30;2.00;;;18.50;52.60;;;;;;6272193;22;20474;-66
2023/03/21 11:27:00;;;;;;;2.73;2.10;;;18.70;52.60;;;;;;6271194;22;20485;-66
2023/03/21 11:29:32;;;;;;;2.87;2.30;;;18.80;52.40;;;;;;6271620;22;20407;-66
2023/03/21 11:32:01;;;;;;;3.03;2.53;;;18.90;51.90;;;;;;6272093;22;20434;-66
2023/03/21 11:34:33;;;;;;;3.00;2.67;;;19.00;52.10;;;;;;6271746;22;20456;-66
2023/03/21 11:37:01;;;;;;;3.00;2.20;;;19.20;51.70;;;;;;6270994;22;20172;-66
2023/03/21 11:39:32;;;;;;;3.30;2.17;;;19.30;51.80;;;;;;6271381;22;20541;-66
2023/03/21 11:41:59;;;;;;;2.73;2.20;;;19.40;51.00;;;;;;6271098;22;20161;-65
2023/03/21 11:44:32;;;;;;;3.70;1.90;;;19.50;50.80;;;;;;6271666;22;20208;-65
2023/03/21 11:47:00;;;;;;;3.50;2.60;;;19.70;50.60;;;;;;6272609;22;20278;-65
2023/03/21 11:49:28;;;;;;;3.53;2.30;;;19.80;50.80;;;;;;6271717;22;20523;-65
2023/03/21 11:52:05;;;;;;;2.60;2.23;;;19.90;50.00;;;;;;6218312;22;20834;-65
2023/03/21 11:54:45;;;;;;;2.57;2.30;;;20.00;50.00;;;;;;6273291;22;20183;-65
2023/03/21 11:57:22;;;;;;;2.37;2.10;;;20.10;49.70;;;;;;6271985;22;20160;-65
2023/03/21 11:59:58;;;;;;;3.17;2.10;;;20.20;49.30;;;;;;6273047;22;20187;-65
2023/03/21 12:02:55;;;;;;;3.33;2.40;;;20.30;49.20;;;;;;6274247;22;20168;-65
2023/03/21 12:05:26;;;;;;;2.53;2.10;;;20.50;48.40;;;;;;6223327;22;20182;-65
2023/03/21 12:08:01;;;;;;;4.00;2.50;;;20.50;47.90;;;;;;6273526;22;20247;-67
2023/03/21 12:10:36;;;;;;;2.73;2.17;;;20.30;47.90;;;;;;6273861;22;20263;-66
2023/03/21 12:13:36;;;;;;;3.17;2.30;;;20.20;48.20;;;;;;6272962;22;20259;-64
2023/03/21 12:16:15;;;;;;;2.90;2.27;;;20.30;48.00;;;;;;6273236;22;20234;-65
2023/03/21 12:19:07;;;;;;;2.40;2.20;;;20.30;47.60;;;;;;6273196;22;20164;-65
2023/03/21 12:21:48;;;;;;;3.90;2.17;;;20.40;47.90;;;;;;6272176;22;20181;-65
2023/03/21 12:24:20;;;;;;;2.40;2.20;;;20.50;47.50;;;;;;6273272;22;20161;-65
2023/03/21 12:26:56;;;;;;;5.80;2.03;;;20.70;47.70;;;;;;6273133;22;20248;-65
2023/03/21 12:29:49;;;;;;;2.67;2.27;;;20.70;47.10;;;;;;6273128;22;20427;-64
2023/03/21 12:32:33;;;;;;;2.50;2.23;;;20.70;47.40;;;;;;6272441;22;20239;-64
2023/03/21 12:35:16;;;;;;;3.77;2.33;;;20.70;47.20;;;;;;6272619;22;20276;-65
2023/03/21 12:37:53;;;;;;;2.63;2.17;;;20.80;47.00;;;;;;6273142;22;20169;-66
2023/03/21 12:40:30;;;;;;;2.30;2.03;;;20.80;47.80;;;;;;6272870;22;20160;-65
2023/03/21 12:43:17;;;;;;;4.20;2.20;;;20.80;48.10;;;;;;6272700;22;20236;-66
2023/03/21 12:45:49;;;;;;;4.60;2.50;;;20.80;46.60;;;;;;6272683;22;20176;-67
2023/03/21 12:48:24;;;;;;;3.37;2.10;;;20.80;46.80;;;;;;6273422;22;20571;-65
2023/03/21 12:50:53;;;;;;;2.70;2.30;;;20.80;46.80;;;;;;6272564;22;20492;-65
2023/03/21 12:53:34;;;;;;;2.57;2.10;;;20.90;46.70;;;;;;6272911;22;20223;-66
2023/03/21 12:56:07;;;;;;;2.87;2.53;;;21.00;46.80;;;;;;6272515;22;20169;-65
2023/03/21 12:58:44;;;;;;;2.83;2.23;;;21.10;46.60;;;;;;6273065;22;20161;-67
2023/03/21 13:01:12;;;;;;;3.37;2.30;;;21.10;46.00;;;;;;6272827;22;20175;-65
2023/03/21 13:03:44;;;;;;;2.90;2.60;;;21.20;46.30;;;;;;6272484;22;20690;-66
2023/03/21 13:06:13;;;;;;;1.60;1.50;;;21.20;44.90;;;;;;6272358;22;20172;-65
2023/03/21 13:08:46;;;;;;;2.63;1.90;;;21.20;45.20;;;;;;6272994;22;20190;-65
2023/03/21 13:11:17;;;;;;;2.20;1.90;;;21.20;44.50;;;;;;6272319;22;20192;-65
2023/03/21 13:13:50;;;;;;;2.10;1.83;;;21.20;44.70;;;;;;6272393;22;20204;-66
2023/03/21 13:16:22;;;;;;;2.20;2.00;;;21.30;44.20;;;;;;6272422;22;20582;-67
2023/03/21 13:19:05;;;;;;;2.83;2.23;;;21.40;44.50;;;;;;6272770;22;20193;-66
2023/03/21 13:21:50;;;;;;;2.13;1.93;;;21.50;43.50;;;;;;6272915;22;20239;-66
2023/03/21 13:24:27;;;;;;;1.80;1.70;;;21.50;43.40;;;;;;6273004;22;20168;-66
2023/03/21 13:27:02;;;;;;;1.93;1.73;;;21.70;43.80;;;;;;6272445;22;20168;-66
2023/03/21 13:29:35;;;;;;;3.27;1.90;;;21.80;44.30;;;;;;6272862;22;20247;-66
2023/03/21 13:32:09;;;;;;;2.20;1.80;;;21.80;43.80;;;;;;6272171;22;20267;-66
2023/03/21 13:34:41;;;;;;;1.97;1.77;;;21.80;43.40;;;;;;6272505;22;20167;-66
2023/03/21 13:37:15;;;;;;;2.10;1.60;;;21.90;42.90;;;;;;6272741;22;20165;-64
2023/03/21 13:39:45;;;;;;;2.90;1.97;;;21.80;43.40;;;;;;6272828;22;20160;-65
2023/03/21 13:42:22;;;;;;;1.93;1.80;;;21.40;43.00;;;;;;6273009;22;20177;-64
2023/03/21 13:44:52;;;;;;;1.87;1.77;;;21.20;43.50;;;;;;6272829;22;20241;-66
2023/03/21 13:47:40;;;;;;;1.67;1.57;;;21.10;43.60;;;;;;6272251;22;20255;-67
2023/03/21 13:50:44;;;;;;;1.67;1.57;;;21.10;43.50;;;;;;6256988;22;20184;-65
2023/03/21 13:53:29;;;;;;;1.97;1.60;;;21.00;43.30;;;;;;6256678;22;20192;-66
2023/03/21 13:56:24;;;;;;;2.00;1.80;;;21.00;43.50;;;;;;6273515;22;20187;-65
2023/03/21 13:58:59;;;;;;;1.83;1.70;;;21.00;43.30;;;;;;6272415;22;20164;-64
2023/03/21 14:01:35;;;;;;;1.80;1.70;;;21.20;43.60;;;;;;6273414;22;20199;-64
2023/03/21 14:04:12;;;;;;;2.87;1.83;;;21.40;43.40;;;;;;6274045;22;20172;-64
2023/03/21 14:06:44;;;;;;;1.97;1.77;;;21.30;42.50;;;;;;6273990;22;20195;-65
2023/03/21 14:09:19;;;;;;;2.00;1.77;;;21.30;42.70;;;;;;6272992;22;20169;-65
2023/03/21 14:11:47;;;;;;;2.23;1.60;;;21.30;42.90;;;;;;6272686;22;20266;-64
2023/03/21 14:14:15;;;;;;;2.33;1.80;;;21.30;43.00;;;;;;6271921;22;20295;-64
2023/03/21 14:16:43;;;;;;;1.80;1.60;;;21.40;42.80;;;;;;6272742;22;20208;-65
2023/03/21 14:19:11;;;;;;;3.43;1.90;;;21.30;42.80;;;;;;6274307;22;20184;-65
2023/03/21 14:21:52;;;;;;;2.00;1.90;;;21.10;42.60;;;;;;6272008;22;20191;-64
2023/03/21 14:24:20;;;;;;;1.70;1.60;;;21.20;42.90;;;;;;6272809;22;20192;-64
2023/03/21 14:26:49;;;;;;;1.60;1.50;;;21.20;43.00;;;;;;6272314;22;20181;-65
2023/03/21 14:29:23;;;;;;;3.13;2.07;;;21.10;43.00;;;;;;6272832;22;20256;-64
2023/03/21 14:31:50;;;;;;;1.80;1.70;;;21.00;42.80;;;;;;6272485;22;20240;-64
2023/03/21 14:34:18;;;;;;;1.73;1.63;;;21.00;42.90;;;;;;6218185;22;20252;-66
2023/03/21 14:36:48;;;;;;;2.00;1.80;;;21.00;42.60;;;;;;6271971;22;20263;-64
2023/03/21 14:39:17;;;;;;;3.07;1.83;;;20.90;42.60;;;;;;6272477;22;20242;-65
2023/03/21 14:41:47;;;;;;;1.63;1.53;;;20.80;42.60;;;;;;6272590;22;20204;-64
2023/03/21 14:44:25;;;;;;;1.77;1.67;;;20.80;42.80;;;;;;6271750;22;20174;-64
2023/03/21 14:47:01;;;;;;;1.83;1.53;;;20.70;42.20;;;;;;6272209;22;20171;-64
2023/03/21 14:49:30;;;;;;;1.60;1.50;;;20.60;41.70;;;;;;6277351;22;20172;-64
2023/03/21 14:52:01;;;;;;;2.07;1.87;;;20.50;42.30;;;;;;6291181;22;20188;-65
2023/03/21 14:54:28;;;;;;;2.30;1.93;;;20.20;41.90;;;;;;6296058;22;20195;-65
2023/03/21 14:57:00;;;;;;;3.43;2.03;;;20.10;42.40;;;;;;6281242;22;20204;-64
2023/03/21 14:59:31;;;;;;;1.70;1.60;;;20.00;43.00;;;;;;6272031;22;20165;-64
2023/03/21 15:02:01;;;;;;;2.37;1.80;;;20.00;43.30;;;;;;6270980;22;20180;-64
2023/03/21 15:04:29;;;;;;;1.70;1.60;;;20.00;43.50;;;;;;6271941;22;20416;-64
2023/03/21 15:07:00;;;;;;;3.60;1.70;;;20.10;43.50;;;;;;6271677;22;20530;-64
2023/03/21 15:09:30;;;;;;;3.93;1.60;;;20.10;43.40;;;;;;6271841;22;20248;-65
2023/03/21 15:11:58;;;;;;;1.47;1.33;;;20.00;41.90;;;;;;6271903;22;20191;-64
2023/03/21 15:14:29;;;;;;;2.03;1.47;;;19.90;40.80;;;;;;6274626;22;20307;-64
2023/03/21 15:16:57;;;;;;;1.40;1.30;;;19.90;41.30;;;;;;6272377;22;20169;-64
2023/03/21 15:19:29;;;;;;;1.53;1.43;;;20.00;41.40;;;;;;6271439;22;20181;-65
2023/03/21 15:22:03;;;;;;;1.60;1.50;;;20.00;41.90;;;;;;6271087;22;20192;-65
2023/03/21 15:24:33;;;;;;;2.00;1.80;;;20.10;41.50;;;;;;6271436;22;20240;-64
2023/03/21 15:27:03;;;;;;;1.87;1.77;;;20.00;42.00;;;;;;6271506;22;20263;-66
2023/03/21 15:29:32;;;;;;;2.43;1.73;;;19.90;42.60;;;;;;6271207;22;20284;-66
2023/03/21 15:32:03;;;;;;;2.23;1.80;;;19.90;43.20;;;;;;6271077;22;20258;-65
2023/03/21 15:34:30;;;;;;;2.93;1.63;;;19.90;42.90;;;;;;6271258;22;20224;-65
2023/03/21 15:37:03;;;;;;;2.33;1.80;;;19.80;43.10;;;;;;6270968;22;20636;-65
2023/03/21 15:39:30;;;;;;;2.33;1.97;;;19.90;43.30;;;;;;6271399;22;20172;-65
2023/03/21 15:42:00;;;;;;;2.43;1.90;;;19.90;43.30;;;;;;6270993;22;20441;-65
2023/03/21 15:44:28;;;;;;;2.47;1.93;;;19.90;43.50;;;;;;6270810;22;20688;-64
2023/03/21 15:46:55;;;;;;;2.70;1.90;;;19.90;43.30;;;;;;6271379;22;20176;-65
2023/03/21 15:49:27;;;;;;;3.07;2.37;;;19.90;43.40;;;;;;6272237;22;20263;-64
2023/03/21 15:52:00;;;;;;;3.53;1.90;;;19.90;43.40;;;;;;6270612;22;20399;-64
2023/03/21 15:54:30;;;;;;;2.20;1.97;;;19.90;43.10;;;;;;6271741;22;20251;-65
2023/03/21 15:57:02;;;;;;;1.80;1.70;;;19.90;43.40;;;;;;6271362;22;20255;-65
2023/03/21 15:59:34;;;;;;;2.10;1.80;;;19.90;43.50;;;;;;6271138;22;20192;-64
2023/03/21 16:02:02;;;;;;;2.13;1.70;;;19.90;43.70;;;;;;6271455;22;20161;-65
2023/03/21 16:04:30;;;;;;;1.80;1.70;;;19.90;43.30;;;;;;6271324;22;20287;-65
2023/03/21 16:07:01;;;;;;;3.10;2.00;;;19.80;43.40;;;;;;6271252;22;20494;-66
2023/03/21 16:09:39;;;;;;;6.57;1.80;;;19.70;43.70;;;;;;6271235;22;20597;-65
2023/03/21 16:12:12;;;;;;;3.03;1.90;;;19.80;43.90;;;;;;6271670;22;20160;-65
2023/03/21 16:14:39;;;;;;;2.37;1.67;;;19.80;43.90;;;;;;6269993;22;20208;-65
2023/03/21 16:17:23;;;;;;;2.03;1.83;;;19.80;44.20;;;;;;6271068;22;20180;-65
2023/03/21 16:19:50;;;;;;;3.37;1.73;;;19.80;44.20;;;;;;6271130;22;20244;-64
2023/03/21 16:22:20;;;;;;;1.60;1.50;;;19.80;44.10;;;;;;6271409;22;20183;-64
2023/03/21 16:24:47;;;;;;;1.83;1.70;;;19.80;44.30;;;;;;6270640;22;20177;-65
2023/03/21 16:27:29;;;;;;;2.83;1.90;;;19.70;44.40;;;;;;6270801;22;20260;-64
2023/03/21 16:29:56;;;;;;;2.40;1.90;;;19.50;44.40;;;;;;6272604;22;20180;-64
2023/03/21 16:32:23;;;;;;;2.23;1.43;;;19.60;45.60;;;;;;6273012;22;20409;-63
2023/03/21 16:34:52;;;;;;;2.47;1.43;;;19.50;46.10;;;;;;6272351;22;20198;-67
2023/03/21 16:37:20;;;;;;;2.80;1.93;;;19.50;45.50;;;;;;6271455;22;20207;-65
2023/03/21 16:39:47;;;;;;;2.50;1.70;;;19.60;45.80;;;;;;6271439;22;20207;-65
2023/03/21 16:42:14;;;;;;;4.20;1.90;;;19.60;45.30;;;;;;6270897;22;20183;-65
2023/03/21 16:44:41;;;;;;;2.43;2.20;;;19.60;46.20;;;;;;6274612;22;20437;-64
2023/03/21 16:47:16;;;;;;;1.80;1.60;;;19.50;46.50;;;;;;6274258;22;20181;-63
2023/03/21 16:49:43;;;;;;;1.80;1.70;;;19.40;47.00;;;;;;6273832;22;20176;-63
2023/03/21 16:52:11;;;;;;;2.40;1.60;;;19.40;47.80;;;;;;6274317;22;20259;-65
2023/03/21 16:54:40;;;;;;;2.53;1.60;;;19.40;47.80;;;;;;6274570;22;20270;-64
2023/03/21 16:57:09;;;;;;;1.93;1.70;;;19.40;48.30;;;;;;6274251;22;20161;-64
2023/03/21 16:59:37;;;;;;;2.90;1.50;;;19.40;48.50;;;;;;6274615;22;20644;-65
2023/03/21 17:02:13;;;;;;;1.60;1.40;;;19.40;48.80;;;;;;6273732;22;20294;-65
2023/03/21 17:04:40;;;;;;;3.37;1.67;;;19.40;48.50;;;;;;6274622;22;20160;-65
2023/03/21 17:07:13;;;;;;;2.70;1.87;;;19.40;48.40;;;;;;6274222;22;20244;-65
2023/03/21 17:09:42;;;;;;;2.13;1.80;;;19.30;48.60;;;;;;6274502;22;20172;-66
2023/03/21 17:12:14;;;;;;;2.50;2.00;;;19.30;48.60;;;;;;6274345;22;20185;-65
2023/03/21 17:14:41;;;;;;;1.97;1.73;;;19.30;48.60;;;;;;6273859;22;20465;-63
2023/03/21 17:17:11;;;;;;;2.20;2.00;;;19.30;48.70;;;;;;6273749;22;20199;-64
2023/03/21 17:19:38;;;;;;;3.23;2.30;;;19.30;48.50;;;;;;6274967;22;20196;-64
2023/03/21 17:22:05;;;;;;;2.17;1.97;;;19.30;48.40;;;;;;6274366;22;20259;-64
2023/03/21 17:24:32;;;;;;;3.00;2.03;;;19.30;48.40;;;;;;6274636;22;20259;-64
2023/03/21 17:27:02;;;;;;;3.23;2.20;;;19.30;48.40;;;;;;6274350;22;20184;-65
2023/03/21 17:29:29;;;;;;;4.83;2.00;;;19.30;48.50;;;;;;6274636;22;20968;-64
2023/03/21 17:31:56;;;;;;;2.10;1.90;;;19.30;48.60;;;;;;6273181;22;20577;-64
2023/03/21 17:34:23;;;;;;;2.00;1.80;;;19.30;48.60;;;;;;6274235;22;20526;-64
2023/03/21 17:36:50;;;;;;;2.20;2.00;;;19.30;48.60;;;;;;6273822;22;20407;-64
2023/03/21 17:39:22;;;;;;;2.03;1.77;;;19.30;49.00;;;;;;6274170;22;20431;-64
2023/03/21 17:41:50;;;;;;;2.57;1.97;;;19.30;49.40;;;;;;6273936;22;20396;-64
2023/03/21 17:44:19;;;;;;;3.17;2.73;;;19.30;49.70;;;;;;6273938;22;20172;-64
2023/03/21 17:46:46;;;;;;;3.20;2.87;;;19.30;50.00;;;;;;6273292;22;20240;-64
2023/03/21 17:49:15;;;;;;;2.90;2.70;;;19.30;50.60;;;;;;6274188;22;20458;-63
2023/03/21 17:51:42;;;;;;;2.77;2.47;;;19.20;50.90;;;;;;6273448;22;20430;-64
2023/03/21 17:54:09;;;;;;;3.00;2.13;;;19.20;51.30;;;;;;6274009;22;20267;-64
2023/03/21 17:56:38;;;;;;;2.40;2.20;;;19.20;51.30;;;;;;6273305;22;20403;-64
2023/03/21 17:59:07;;;;;;;2.30;2.03;;;19.20;51.90;;;;;;6273829;22;20498;-65
2023/03/21 18:01:35;;;;;;;2.30;2.07;;;19.20;52.30;;;;;;6272720;22;20990;-67
2023/03/21 18:04:04;;;;;;;4.47;2.00;;;19.10;52.20;;;;;;6273511;22;20433;-66
2023/03/21 18:06:32;;;;;;;2.70;2.00;;;19.10;52.20;;;;;;6273797;22;20407;-67
2023/03/21 18:09:02;;;;;;;1.90;1.70;;;19.10;52.00;;;;;;6273473;22;20457;-68
2023/03/21 18:11:29;;;;;;;3.13;1.90;;;19.00;52.00;;;;;;6273350;22;20422;-66
2023/03/21 18:13:57;;;;;;;2.17;1.80;;;19.00;52.00;;;;;;6273707;22;20457;-66
2023/03/21 18:16:24;;;;;;;2.23;1.93;;;18.90;52.30;;;;;;6273345;22;20589;-67
2023/03/21 18:18:55;;;;;;;2.07;1.60;;;18.90;53.00;;;;;;6278561;22;20434;-68
2023/03/21 18:21:23;;;;;;;2.27;1.93;;;18.90;52.40;;;;;;6279185;22;20387;-68
2023/03/21 18:23:50;;;;;;;3.23;2.30;;;18.80;52.30;;;;;;6273673;22;20477;-68
2023/03/21 18:26:19;;;;;;;2.20;2.00;;;18.80;52.00;;;;;;6273926;22;20407;-68
2023/03/21 18:28:47;;;;;;;2.30;2.10;;;18.70;52.30;;;;;;6273403;22;20979;-68
2023/03/21 18:31:17;;;;;;;2.37;2.17;;;18.70;52.30;;;;;;6273402;22;20410;-68
2023/03/21 18:33:46;;;;;;;2.77;2.33;;;18.70;52.30;;;;;;6273602;22;20435;-68
2023/03/21 18:36:16;;;;;;;3.70;2.33;;;18.70;52.30;;;;;;6273646;22;20902;-67
2023/03/21 18:38:43;;;;;;;3.50;2.80;;;18.60;52.70;;;;;;6274784;22;20428;-67
2023/03/21 18:41:10;;;;;;;3.30;3.00;;;18.60;53.10;;;;;;6273812;22;20407;-68
2023/03/21 18:43:38;;;;;;;4.67;2.90;;;18.60;53.40;;;;;;6273335;22;20462;-67
2023/03/21 18:46:06;;;;;;;2.93;2.40;;;18.60;53.60;;;;;;6273523;22;20403;-67
2023/03/21 18:48:33;;;;;;;3.87;2.10;;;18.60;53.60;;;;;;6274201;22;20408;-67
2023/03/21 18:51:00;;;;;;;2.27;2.00;;;18.60;53.30;;;;;;6273972;22;20509;-66
2023/03/21 18:53:28;;;;;;;3.30;2.20;;;18.50;53.20;;;;;;6274365;22;20429;-66
2023/03/21 18:55:56;;;;;;;2.80;2.10;;;18.50;53.40;;;;;;6273863;22;21030;-67
2023/03/21 18:58:23;;;;;;;3.10;2.80;;;18.50;53.00;;;;;;6273810;22;20431;-67
2023/03/21 19:00:59;;;;;;;3.83;3.13;;;18.50;54.20;;;;;;6273369;22;20770;-67
2023/03/21 19:03:26;;;;;;;3.40;3.10;;;18.40;55.00;;;;;;6267022;22;20422;-67
2023/03/21 19:06:07;;;;;;;3.77;2.70;;;18.40;54.80;;;;;;6274270;22;21079;-67
2023/03/21 19:09:21;;;;;;;2.37;2.13;;;18.30;54.90;;;;;;6274369;22;20768;-67
2023/03/21 19:11:58;;;;;;;4.23;2.50;;;18.30;54.70;;;;;;6150401;23;20435;-67
2023/03/21 19:14:31;;;;;;;3.27;2.50;;;18.30;54.90;;;;;;6150323;23;20549;-68
2023/03/21 19:17:07;;;;;;;5.40;4.43;;;18.30;55.00;;;;;;6150806;23;20514;-68
2023/03/21 19:19:34;;;;;;;6.77;5.50;;;18.20;54.90;;;;;;6150041;23;20827;-68
2023/03/21 19:22:01;;;;;;;7.97;7.00;;;18.20;54.70;;;;;;6150008;23;20415;-67
2023/03/21 19:24:31;;;;;;;7.00;6.30;;;18.20;54.70;;;;;;6149999;23;20493;-67
2023/03/21 19:26:59;;;;;;;7.63;5.30;;;18.10;54.60;;;;;;6148976;23;20746;-67
2023/03/21 19:29:29;;;;;;;6.43;5.70;;;18.10;55.40;;;;;;6150883;23;20411;-67
2023/03/21 19:31:55;;;;;;;6.53;4.87;;;18.00;55.90;;;;;;6150239;23;20430;-66
2023/03/21 19:34:22;;;;;;;7.17;5.90;;;18.00;56.30;;;;;;6150122;23;20545;-68
2023/03/21 19:36:50;;;;;;;8.67;6.00;;;18.00;56.40;;;;;;6149508;23;20413;-66
2023/03/21 19:39:26;;;;;;;10.10;6.43;;;17.90;56.40;;;;;;6150144;23;20513;-67
2023/03/21 19:41:53;;;;;;;10.73;8.80;;;17.90;56.90;;;;;;6149547;23;20422;-68
2023/03/21 19:44:24;;;;;;;12.87;9.47;;;17.80;56.80;;;;;;6149915;23;21171;-67
2023/03/21 19:46:51;;;;;;;4.10;3.40;;;17.80;56.70;;;;;;6147184;22;20484;-67
2023/03/21 19:49:21;;;;;;;3.37;2.93;;;17.70;55.50;;;;;;6273025;22;20431;-71
2023/03/21 19:51:54;;;;;;;2.67;2.43;;;17.70;55.60;;;;;;6257672;22;20423;-67
2023/03/21 19:54:22;;;;;;;2.30;2.10;;;17.60;55.30;;;;;;6273167;22;20930;-67
2023/03/21 19:56:50;;;;;;;3.00;2.07;;;17.60;55.50;;;;;;6272356;22;20907;-68
2023/03/21 19:59:18;;;;;;;4.07;2.03;;;17.60;55.40;;;;;;6273875;22;20490;-67
2023/03/21 20:01:50;;;;;;;2.70;2.10;;;17.60;55.60;;;;;;6273685;22;20396;-68
2023/03/21 20:04:28;;;;;;;3.30;2.23;;;17.60;55.60;;;;;;6273016;22;20392;-68
2023/03/21 20:06:57;;;;;;;3.33;3.03;;;17.50;55.70;;;;;;6273217;22;20903;-68
2023/03/21 20:09:24;;;;;;;3.47;2.60;;;17.50;55.40;;;;;;6272840;22;20485;-67
2023/03/21 20:11:52;;;;;;;3.17;2.87;;;17.50;55.50;;;;;;6272866;22;20808;-67
2023/03/21 20:14:19;;;;;;;2.97;2.67;;;17.50;55.50;;;;;;6273440;22;20443;-68
2023/03/21 20:16:46;;;;;;;3.17;2.87;;;17.50;55.90;;;;;;6272612;22;20763;-68
2023/03/21 20:21:58;;;;;;;4.03;3.13;;;17.40;55.90;;;;;;6258592;22;20407;-69
2023/03/21 20:24:35;;;;;;;4.77;3.47;;;17.40;56.00;;;;;;6272255;22;20454;-67
2023/03/21 20:27:02;;;;;;;3.50;3.20;;;17.40;56.30;;;;;;6274674;22;20855;-68
2023/03/21 20:29:29;;;;;;;4.97;4.20;;;17.30;56.50;;;;;;6273711;22;20529;-68
2023/03/21 20:31:56;;;;;;;6.30;4.50;;;17.30;56.70;;;;;;6274632;22;20744;-68
2023/03/21 20:34:24;;;;;;;6.33;4.70;;;17.20;57.00;;;;;;6274916;22;20450;-68
2023/03/21 20:36:52;;;;;;;6.20;4.57;;;17.10;57.00;;;;;;6274952;22;20402;-69
2023/03/21 20:39:22;;;;;;;7.63;4.77;;;17.10;57.20;;;;;;6270123;22;20481;-68
2023/03/21 20:41:48;;;;;;;8.43;6.37;;;17.00;57.30;;;;;;6274197;22;20490;-68
2023/03/21 20:44:16;;;;;;;4.67;4.13;;;17.00;57.30;;;;;;6275179;22;20399;-67
2023/03/21 20:46:46;;;;;;;3.50;3.17;;;16.90;57.40;;;;;;6274245;22;20928;-68
2023/03/21 20:49:14;;;;;;;4.00;3.13;;;16.90;57.70;;;;;;6274893;22;20391;-67
2023/03/21 20:52:05;;;;;;;7.10;2.70;;;16.80;57.80;;;;;;6274628;22;20453;-67
2023/03/21 20:54:33;;;;;;;3.23;2.93;;;16.70;57.80;;;;;;6274200;22;20809;-68
2023/03/21 20:57:01;;;;;;;6.20;3.47;;;16.70;58.00;;;;;;6274418;22;20482;-68
2023/03/21 20:59:31;;;;;;;3.90;3.60;;;16.70;58.10;;;;;;6275110;22;20445;-68
2023/03/21 21:01:58;;;;;;;4.70;4.20;;;16.60;57.70;;;;;;6274829;22;20407;-67
2023/03/21 21:04:28;;;;;;;3.80;3.50;;;16.60;57.90;;;;;;6274865;22;20392;-67
2023/03/21 21:06:54;;;;;;;3.63;3.30;;;16.50;58.00;;;;;;6243831;22;20419;-68
2023/03/21 21:09:23;;;;;;;4.70;2.97;;;16.50;58.00;;;;;;6274897;22;20439;-67
2023/03/21 21:11:59;;;;;;;4.07;3.10;;;16.40;57.90;;;;;;6272158;22;20419;-66
2023/03/21 21:14:26;;;;;;;3.73;2.50;;;16.40;58.10;;;;;;6274975;22;20442;-68
2023/03/21 21:17:06;;;;;;;3.37;2.70;;;16.40;57.90;;;;;;6274271;22;20411;-68
2023/03/21 21:19:42;;;;;;;5.97;2.60;;;16.30;58.30;;;;;;6275116;22;20422;-67
2023/03/21 21:22:12;;;;;;;3.83;2.50;;;16.30;58.50;;;;;;6274380;22;20449;-68
2023/03/21 21:24:49;;;;;;;2.50;2.30;;;16.10;58.30;;;;;;6274427;22;20423;-68
2023/03/21 21:27:16;;;;;;;2.93;1.93;;;16.00;58.40;;;;;;6274964;22;20391;-68
2023/03/21 21:29:48;;;;;;;3.07;2.10;;;16.00;58.40;;;;;;6274546;22;20553;-67
2023/03/21 21:32:18;;;;;;;4.50;2.10;;;15.90;58.50;;;;;;6273526;22;21034;-67
2023/03/21 21:34:46;;;;;;;2.80;2.20;;;15.80;59.20;;;;;;6274776;22;20430;-67
2023/03/21 21:37:14;;;;;;;2.73;2.20;;;15.80;58.70;;;;;;6274549;22;20411;-67
2023/03/21 21:39:41;;;;;;;3.13;2.20;;;15.70;58.70;;;;;;6273903;22;20453;-67
2023/03/21 21:42:09;;;;;;;3.40;2.13;;;15.70;58.90;;;;;;6269389;22;20477;-68
2023/03/21 21:44:38;;;;;;;4.10;2.70;;;15.70;58.80;;;;;;6274348;22;20406;-66
2023/03/21 21:47:07;;;;;;;2.70;2.20;;;15.60;58.80;;;;;;6270656;22;20430;-66
2023/03/21 21:49:35;;;;;;;3.50;2.90;;;15.60;58.90;;;;;;6268897;22;20931;-67
2023/03/21 21:52:02;;;;;;;3.07;2.53;;;15.60;58.80;;;;;;6274256;22;20450;-67
2023/03/21 21:54:32;;;;;;;3.97;2.70;;;15.60;58.90;;;;;;6273780;22;20439;-68
2023/03/21 21:56:59;;;;;;;2.97;2.70;;;15.50;59.00;;;;;;6258150;22;20446;-66
2023/03/21 21:59:40;;;;;;;4.23;2.70;;;15.50;59.10;;;;;;6274686;22;20969;-67
2023/03/21 22:02:09;;;;;;;4.73;2.60;;;15.50;59.30;;;;;;6275210;22;20490;-68
2023/03/21 22:04:45;;;;;;;3.30;3.00;;;15.40;59.40;;;;;;6280207;22;20500;-67
2023/03/21 22:07:13;;;;;;;5.87;2.80;;;15.40;59.70;;;;;;6282768;22;20426;-69
2023/03/21 22:09:40;;;;;;;5.07;2.97;;;15.40;59.70;;;;;;6258885;22;20427;-67
2023/03/21 22:12:13;;;;;;;5.67;3.83;;;15.30;59.80;;;;;;6273642;22;20959;-68
2023/03/21 22:14:43;;;;;;;5.77;4.30;;;15.20;59.90;;;;;;6273952;22;20970;-69
2023/03/21 22:17:10;;;;;;;6.53;4.00;;;15.20;60.10;;;;;;6274224;22;20475;-67
2023/03/21 22:19:37;;;;;;;6.03;4.67;;;15.20;60.10;;;;;;6274474;22;20471;-74
2023/03/21 22:22:19;;;;;;;5.33;4.30;;;15.20;60.30;;;;;;6273071;22;20435;-73
2023/03/21 22:24:46;;;;;;;7.90;5.77;;;15.20;60.60;;;;;;6274353;22;20802;-71
2023/03/21 22:27:13;;;;;;;11.90;5.33;;;15.10;60.40;;;;;;6272942;22;20431;-73
2023/03/21 22:29:41;;;;;;;7.30;5.50;;;15.10;60.40;;;;;;6274272;22;20491;-73
2023/03/21 22:32:09;;;;;;;7.83;5.00;;;15.10;60.60;;;;;;6274106;22;20413;-73
2023/03/21 22:34:35;;;;;;;5.70;5.07;;;15.10;60.70;;;;;;6273556;22;20702;-73
2023/03/21 22:37:02;;;;;;;6.10;4.77;;;15.00;60.60;;;;;;6273094;22;20407;-73
2023/03/21 22:39:29;;;;;;;8.20;4.90;;;15.00;60.60;;;;;;6274330;22;20494;-73
2023/03/21 22:41:59;;;;;;;8.47;5.60;;;15.00;60.60;;;;;;6273978;22;20415;-73
2023/03/21 22:44:26;;;;;;;7.23;5.40;;;15.00;60.70;;;;;;6273945;22;20391;-73
2023/03/21 22:46:55;;;;;;;10.17;5.70;;;15.00;60.50;;;;;;6274028;22;20502;-73
2023/03/21 22:49:21;;;;;;;8.50;5.30;;;14.90;60.20;;;;;;6273565;22;20996;-72
2023/03/21 22:51:48;;;;;;;7.53;5.53;;;14.90;60.40;;;;;;6274387;22;20478;-73
2023/03/21 22:54:15;;;;;;;8.87;5.43;;;14.90;60.60;;;;;;6275219;22;20761;-73
2023/03/21 22:56:42;;;;;;;9.47;6.70;;;14.90;60.60;;;;;;6274344;22;20451;-72
2023/03/21 22:59:10;;;;;;;6.83;5.50;;;14.90;61.40;;;;;;6275424;22;20394;-72
2023/03/21 23:01:38;;;;;;;6.40;5.80;;;14.90;61.10;;;;;;6274103;22;20506;-73
2023/03/21 23:04:06;;;;;;;6.50;5.00;;;14.80;61.10;;;;;;6274339;22;20422;-74
2023/03/21 23:06:34;;;;;;;6.57;4.67;;;14.80;61.40;;;;;;6274160;22;20383;-73
2023/03/21 23:09:01;;;;;;;5.60;4.30;;;14.70;61.40;;;;;;6274658;22;20408;-73
2023/03/21 23:11:28;;;;;;;5.03;3.80;;;14.70;61.40;;;;;;6274497;22;20752;-72
2023/03/21 23:13:55;;;;;;;5.80;4.60;;;14.60;61.60;;;;;;6274546;22;20526;-73
2023/03/21 23:16:22;;;;;;;6.40;4.20;;;14.60;61.60;;;;;;6274329;22;20550;-72
2023/03/21 23:18:52;;;;;;;5.57;4.13;;;14.50;61.60;;;;;;6274250;22;20459;-72
2023/03/21 23:21:22;;;;;;;5.07;4.57;;;14.50;61.70;;;;;;6274151;22;20483;-73
2023/03/21 23:23:50;;;;;;;5.70;4.50;;;14.50;61.90;;;;;;6274658;22;20411;-72
2023/03/21 23:26:18;;;;;;;9.07;4.20;;;14.50;62.10;;;;;;6274299;22;20517;-72
2023/03/21 23:28:46;;;;;;;5.50;4.23;;;14.40;62.00;;;;;;6274757;22;20407;-72
2023/03/21 23:31:15;;;;;;;5.87;4.27;;;14.40;62.20;;;;;;6274015;22;20418;-73
2023/03/21 23:33:43;;;;;;;6.10;4.17;;;14.40;62.20;;;;;;6274069;22;20939;-73
2023/03/21 23:36:11;;;;;;;4.93;4.03;;;14.40;62.20;;;;;;6274405;22;20750;-73
2023/03/21 23:38:40;;;;;;;4.57;4.10;;;14.40;62.20;;;;;;6275092;22;20730;-73
2023/03/21 23:41:08;;;;;;;6.47;4.60;;;14.40;62.20;;;;;;6274211;22;20919;-73
2023/03/21 23:43:35;;;;;;;6.10;4.87;;;14.40;62.30;;;;;;6274210;22;20883;-73
2023/03/21 23:46:04;;;;;;;5.43;4.27;;;14.40;62.40;;;;;;6274366;22;20437;-73
2023/03/21 23:48:31;;;;;;;5.07;4.57;;;14.40;62.40;;;;;;6273840;22;20411;-73
2023/03/21 23:50:58;;;;;;;5.80;4.60;;;14.40;62.40;;;;;;6274143;22;20518;-73
2023/03/21 23:53:25;;;;;;;7.20;4.90;;;14.30;63.10;;;;;;6274247;22;20407;-73
2023/03/21 23:55:57;;;;;;;5.77;4.30;;;14.30;62.40;;;;;;6274339;22;20759;-73
2023/03/21 23:58:25;;;;;;;4.83;4.20;;;14.20;62.50;;;;;;6274543;22;20743;-74
